Sunday, July 22, 2018, 12:34 AM EDT
Back to Local

KFOK, The Gabreski Airport

Location: East Quogue, NY, United States Lat: 40.85
Local Time: 12:34 AM EDT ( 4:34 GMT) Lon: -72.617
Time Zone: US/Eastern Elev: 65 ft

Show me the last for .
Show Decoded

2018-07-21 23:53 METAR KFOK 220353Z AUTO 09013G24KT 5SM -RA BR OVC003 21/19 A2997 RMK AO2 SLP149
                 P0002 T02060194 $ =
2018-07-21 23:29 METAR KFOK 220329Z AUTO 09012G24KT 8SM -RA OVC004 21/19 A2999 RMK AO2 P0001
                 T02060189 $ =
2018-07-21 23:17 METAR KFOK 220317Z AUTO 10013G22KT 8SM -RA OVC005 21/19 A3000 RMK AO2 P0001
                 T02060189 $ =
2018-07-21 23:00 METAR KFOK 220300Z AUTO 08011G23KT 6SM -RA BR OVC004 20/19 A3000 RMK AO2 P0001
                 T02000189 $ =
2018-07-21 22:53 METAR KFOK 220253Z 10012G19KT 2 1/2SM -RA BR OVC004 20/19 A3000 RMK AO2 SLP159
                 P0016 60016 T02000189 58011 $ =
2018-07-21 22:41 METAR KFOK 220241Z 09011G18KT 2SM +RA BR OVC004 20/18 A3001 RMK AO2 P0010
                 T02000183 $ =
2018-07-21 22:28 METAR KFOK 220228Z 09010G17KT 4SM -RA BR OVC004 20/18 A3002 RMK AO2 P0001
                 T02000183 $ =
2018-07-21 21:53 METAR KFOK 220153Z 08013G22KT 10SM -RA OVC008 20/18 A3002 RMK AO2 RAB48 SLP164
                 P0000 T02000178 $ =
2018-07-21 21:38 METAR KFOK 220138Z 09012G19KT 10SM OVC009 21/17 A3002 RMK AO2 T02060172 $ =
2018-07-21 20:53 METAR KFOK 220053Z 09009G20KT 10SM OVC013 20/17 A3003 RMK AO2 SLP167 T02000167 $
                 =
2018-07-21 19:53 METAR KFOK 212353Z 08011KT 10SM FEW012 OVC025 20/17 A3004 RMK AO2 RAB25E34
                 SLP171 P0000 60000 T02000167 10217 20200 58011 $ =
2018-07-21 19:19 METAR KFOK 212319Z 08010G22KT 10SM BKN027 OVC031 20/16 A3004 RMK AO2 T02000161 $
                 =
2018-07-21 18:53 METAR KFOK 212253Z 09009KT 10SM OVC033 20/16 A3005 RMK AO2 SLP175 T02000156 $ =
2018-07-21 17:53 METAR KFOK 212153Z 08012G19KT 10SM SCT050 21/16 A3006 RMK AO2 SLP178 T02060156 $
                 =
2018-07-21 16:53 METAR KFOK 212053Z 10012G21KT 10SM SCT055 21/15 A3007 RMK AO2 SLP182 T02110150
                 56012 $ =
2018-07-21 15:53 METAR KFOK 211953Z 09013G18KT 10SM FEW017 21/15 A3007 RMK AO2 SLP182 T02060150 $
                 =
2018-07-21 14:53 METAR KFOK 211853Z 09010G20KT 10SM SCT018 22/16 A3009 RMK AO2 SLP189 T02170156 $
                 =
2018-07-21 14:33 METAR KFOK 211833Z 10011G21KT 10SM SCT018 21/15 A3009 RMK AO2 T02110150 $ =
2018-07-21 14:01 METAR KFOK 211801Z 10011G19KT 070V130 10SM BKN019 22/16 A3011 RMK AO2 T02170156
                 $ =
2018-07-21 13:53 METAR KFOK 211753Z 10013G19KT 10SM SCT019 22/15 A3010 RMK AO2 SLP194 T02170150
                 10233 20211 58015 $ =
2018-07-21 13:38 METAR KFOK 211738Z 09012G22KT 060V130 10SM BKN019 BKN024 23/16 A3010 RMK AO2
                 T02280156 $ =
2018-07-21 12:53 METAR KFOK 211653Z 09010G20KT 10SM FEW021 23/15 A3013 RMK AO2 SLP201 T02280150 $
                 =
2018-07-21 12:00 METAR KFOK 211600Z 10013G19KT 070V130 10SM SCT026 SCT032 23/14 A3013 RMK AO2
                 T02280144 $ =
2018-07-21 11:53 METAR KFOK 211553Z 09010G17KT 050V120 10SM BKN026 BKN032 22/14 A3014 RMK AO2
                 SLP205 T02220144 $ =
2018-07-21 11:35 METAR KFOK 211535Z 09009KT 10SM BKN026 BKN031 22/14 A3014 RMK AO2 T02220144 $ =
2018-07-21 10:53 METAR KFOK 211453Z 10007G15KT 070V130 10SM CLR 23/13 A3015 RMK AO2 SLP209
                 T02280128 53006 $ =
2018-07-21 09:53 METAR KFOK 211353Z 08009G16KT 10SM CLR 22/12 A3014 RMK AO2 SLP205 T02220117 $ =
2018-07-21 08:53 METAR KFOK 211253Z 10009G15KT 060V130 10SM FEW029 22/13 A3013 RMK AO2 SLP204
                 T02170133 $ =
2018-07-21 07:53 METAR KFOK 211153Z 09006KT 10SM CLR 21/13 A3013 RMK AO2 SLP202 T02110128 10211
                 20111 56002 $ =
2018-07-21 06:53 METAR KFOK 211053Z 00000KT 10SM CLR 16/13 A3013 RMK AO2 SLP202 T01560133 $ =
2018-07-21 05:53 METAR KFOK 210953Z AUTO 08005KT 10SM CLR 11/09 A3013 RMK AO2 SLP203 T01110094 $
                 =
2018-07-21 04:53 METAR KFOK 210853Z AUTO 07003KT 10SM CLR 12/10 A3014 RMK AO2 SLP205 T01170100
                 55000 $ =
2018-07-21 03:53 METAR KFOK 210753Z AUTO 00000KT 10SM CLR 13/11 A3014 RMK AO2 SLP205 T01330111 $
                 =
2018-07-21 02:53 METAR KFOK 210653Z AUTO 00000KT 10SM CLR 13/11 A3014 RMK AO2 SLP204 T01280106 $
                 =
2018-07-21 01:53 METAR KFOK 210553Z AUTO 00000KT 10SM CLR 13/11 A3014 RMK AO2 SLP205 T01280106
                 10222 20128 58008 $ =
2018-07-21 00:53 METAR KFOK 210453Z AUTO 00000KT 10SM CLR 13/11 A3015 RMK AO2 SLP208 T01330111
                 402720111 $ =

Support USWX by starting your Amazon purchase here.